sensor_id;sensor_type;location;lat;lon;timestamp;temperature;humidity
34406;DHT22;20658;45.630;8.886;2023-06-05T00:00:43;16.50;99.90
34406;DHT22;20658;45.630;8.886;2023-06-05T00:03:16;16.50;99.90
34406;DHT22;20658;45.630;8.886;2023-06-05T00:05:45;16.50;99.90
34406;DHT22;20658;45.630;8.886;2023-06-05T00:08:19;16.50;99.90
34406;DHT22;20658;45.630;8.886;2023-06-05T00:10:48;16.50;99.90
34406;DHT22;20658;45.630;8.886;2023-06-05T00:13:22;16.50;99.90
34406;DHT22;20658;45.630;8.886;2023-06-05T00:15:55;16.50;99.90
34406;DHT22;20658;45.630;8.886;2023-06-05T00:18:29;16.50;99.90
34406;DHT22;20658;45.630;8.886;2023-06-05T00:20:57;16.50;99.90
34406;DHT22;20658;45.630;8.886;2023-06-05T00:23:31;16.40;99.90
34406;DHT22;20658;45.630;8.886;2023-06-05T00:26:06;16.40;99.90
34406;DHT22;20658;45.630;8.886;2023-06-05T00:28:39;16.40;99.90
34406;DHT22;20658;45.630;8.886;2023-06-05T00:31:13;16.40;99.90
34406;DHT22;20658;45.630;8.886;2023-06-05T00:33:41;16.40;99.90
34406;DHT22;20658;45.630;8.886;2023-06-05T00:36:10;16.40;99.90
34406;DHT22;20658;45.630;8.886;2023-06-05T00:38:44;16.30;99.90
34406;DHT22;20658;45.630;8.886;2023-06-05T00:41:13;16.30;99.90
34406;DHT22;20658;45.630;8.886;2023-06-05T00:43:47;16.40;99.90
34406;DHT22;20658;45.630;8.886;2023-06-05T00:46:20;16.40;99.90
34406;DHT22;20658;45.630;8.886;2023-06-05T00:48:54;16.30;99.90
34406;DHT22;20658;45.630;8.886;2023-06-05T00:51:27;16.40;99.90
34406;DHT22;20658;45.630;8.886;2023-06-05T00:54:01;16.40;99.90
34406;DHT22;20658;45.630;8.886;2023-06-05T00:56:35;16.30;99.90
34406;DHT22;20658;45.630;8.886;2023-06-05T00:59:07;16.40;99.90
34406;DHT22;20658;45.630;8.886;2023-06-05T01:01:41;16.40;99.90
34406;DHT22;20658;45.630;8.886;2023-06-05T01:04:10;16.30;99.90
34406;DHT22;20658;45.630;8.886;2023-06-05T01:06:39;16.30;99.90
34406;DHT22;20658;45.630;8.886;2023-06-05T01:09:13;16.30;99.90
34406;DHT22;20658;45.630;8.886;2023-06-05T01:11:52;16.30;99.90
34406;DHT22;20658;45.630;8.886;2023-06-05T01:14:22;16.40;99.90
34406;DHT22;20658;45.630;8.886;2023-06-05T01:16:57;16.40;99.90
34406;DHT22;20658;45.630;8.886;2023-06-05T01:19:35;16.30;99.90
34406;DHT22;20658;45.630;8.886;2023-06-05T01:22:06;16.30;99.90
34406;DHT22;20658;45.630;8.886;2023-06-05T01:24:36;16.30;99.90
34406;DHT22;20658;45.630;8.886;2023-06-05T01:27:14;16.30;99.90
34406;DHT22;20658;45.630;8.886;2023-06-05T01:29:53;16.30;99.90
34406;DHT22;20658;45.630;8.886;2023-06-05T01:32:30;16.30;99.90
34406;DHT22;20658;45.630;8.886;2023-06-05T01:35:04;16.30;99.90
34406;DHT22;20658;45.630;8.886;2023-06-05T01:37:42;16.20;99.90
34406;DHT22;20658;45.630;8.886;2023-06-05T01:40:22;16.20;99.90
34406;DHT22;20658;45.630;8.886;2023-06-05T01:42:59;16.20;99.90
34406;DHT22;20658;45.630;8.886;2023-06-05T01:45:30;16.20;99.90
34406;DHT22;20658;45.630;8.886;2023-06-05T01:48:05;16.20;99.90
34406;DHT22;20658;45.630;8.886;2023-06-05T01:50:40;16.20;99.90
34406;DHT22;20658;45.630;8.886;2023-06-05T01:53:14;16.10;99.90
34406;DHT22;20658;45.630;8.886;2023-06-05T01:55:50;16.10;99.90
34406;DHT22;20658;45.630;8.886;2023-06-05T01:58:25;16.10;99.90
34406;DHT22;20658;45.630;8.886;2023-06-05T02:00:59;16.10;99.90
34406;DHT22;20658;45.630;8.886;2023-06-05T02:03:33;16.10;99.90
34406;DHT22;20658;45.630;8.886;2023-06-05T02:06:07;16.10;99.90
34406;DHT22;20658;45.630;8.886;2023-06-05T02:08:40;16.40;99.90
34406;DHT22;20658;45.630;8.886;2023-06-05T02:11:15;16.10;99.90
34406;DHT22;20658;45.630;8.886;2023-06-05T02:13:49;16.10;99.90
34406;DHT22;20658;45.630;8.886;2023-06-05T02:16:25;16.00;99.90
34406;DHT22;20658;45.630;8.886;2023-06-05T02:18:59;16.00;99.90
34406;DHT22;20658;45.630;8.886;2023-06-05T02:21:35;16.00;99.90
34406;DHT22;20658;45.630;8.886;2023-06-05T02:24:08;16.00;99.90
34406;DHT22;20658;45.630;8.886;2023-06-05T02:26:43;16.00;99.90
34406;DHT22;20658;45.630;8.886;2023-06-05T02:29:17;16.00;99.90
34406;DHT22;20658;45.630;8.886;2023-06-05T02:31:50;16.00;99.90
34406;DHT22;20658;45.630;8.886;2023-06-05T02:34:24;16.00;99.90
34406;DHT22;20658;45.630;8.886;2023-06-05T02:36:57;16.00;99.90
34406;DHT22;20658;45.630;8.886;2023-06-05T02:39:31;16.10;99.90
34406;DHT22;20658;45.630;8.886;2023-06-05T02:42:07;16.00;99.90
34406;DHT22;20658;45.630;8.886;2023-06-05T02:44:41;16.00;99.90
34406;DHT22;20658;45.630;8.886;2023-06-05T02:47:15;16.00;99.90
34406;DHT22;20658;45.630;8.886;2023-06-05T02:49:48;16.30;99.90
34406;DHT22;20658;45.630;8.886;2023-06-05T02:52:21;16.00;99.90
34406;DHT22;20658;45.630;8.886;2023-06-05T02:54:56;15.90;99.90
34406;DHT22;20658;45.630;8.886;2023-06-05T02:57:31;16.10;99.90
34406;DHT22;20658;45.630;8.886;2023-06-05T03:00:00;16.00;99.90
34406;DHT22;20658;45.630;8.886;2023-06-05T03:02:39;15.90;99.90
34406;DHT22;20658;45.630;8.886;2023-06-05T03:05:13;15.90;99.90
34406;DHT22;20658;45.630;8.886;2023-06-05T03:07:47;15.90;99.90
34406;DHT22;20658;45.630;8.886;2023-06-05T03:10:22;15.90;99.90
34406;DHT22;20658;45.630;8.886;2023-06-05T03:12:57;15.90;99.90
34406;DHT22;20658;45.630;8.886;2023-06-05T03:15:33;15.90;99.90
34406;DHT22;20658;45.630;8.886;2023-06-05T03:18:11;15.90;99.90
34406;DHT22;20658;45.630;8.886;2023-06-05T03:20:45;16.00;99.90
34406;DHT22;20658;45.630;8.886;2023-06-05T03:23:13;16.00;99.90
34406;DHT22;20658;45.630;8.886;2023-06-05T03:25:46;15.90;99.90
34406;DHT22;20658;45.630;8.886;2023-06-05T03:28:22;16.00;99.90
34406;DHT22;20658;45.630;8.886;2023-06-05T03:30:58;15.90;99.90
34406;DHT22;20658;45.630;8.886;2023-06-05T03:33:35;15.90;99.90
34406;DHT22;20658;45.630;8.886;2023-06-05T03:36:09;15.90;99.90
34406;DHT22;20658;45.630;8.886;2023-06-05T03:38:42;16.00;99.90
34406;DHT22;20658;45.630;8.886;2023-06-05T03:41:16;15.90;99.90
34406;DHT22;20658;45.630;8.886;2023-06-05T03:43:51;15.90;99.90
34406;DHT22;20658;45.630;8.886;2023-06-05T03:46:25;15.90;99.90
34406;DHT22;20658;45.630;8.886;2023-06-05T03:49:02;15.90;99.90
34406;DHT22;20658;45.630;8.886;2023-06-05T03:51:40;15.90;99.90
34406;DHT22;20658;45.630;8.886;2023-06-05T03:54:16;15.90;99.90
34406;DHT22;20658;45.630;8.886;2023-06-05T03:56:49;15.90;99.90
34406;DHT22;20658;45.630;8.886;2023-06-05T03:59:25;15.90;99.90
34406;DHT22;20658;45.630;8.886;2023-06-05T04:02:01;16.00;99.90
34406;DHT22;20658;45.630;8.886;2023-06-05T04:04:36;16.00;99.90
34406;DHT22;20658;45.630;8.886;2023-06-05T04:07:09;16.00;99.90
34406;DHT22;20658;45.630;8.886;2023-06-05T04:09:43;16.00;99.90
34406;DHT22;20658;45.630;8.886;2023-06-05T04:12:11;16.00;99.90
34406;DHT22;20658;45.630;8.886;2023-06-05T04:14:47;16.00;99.90
34406;DHT22;20658;45.630;8.886;2023-06-05T04:17:21;16.00;99.90
34406;DHT22;20658;45.630;8.886;2023-06-05T04:19:55;16.00;99.90
34406;DHT22;20658;45.630;8.886;2023-06-05T04:22:28;16.10;99.90
34406;DHT22;20658;45.630;8.886;2023-06-05T04:25:03;16.10;99.90
34406;DHT22;20658;45.630;8.886;2023-06-05T04:27:31;16.10;99.90
34406;DHT22;20658;45.630;8.886;2023-06-05T04:30:01;16.10;99.90
34406;DHT22;20658;45.630;8.886;2023-06-05T04:32:32;16.10;99.90
34406;DHT22;20658;45.630;8.886;2023-06-05T04:35:10;16.20;99.90
34406;DHT22;20658;45.630;8.886;2023-06-05T04:37:44;16.20;99.90
34406;DHT22;20658;45.630;8.886;2023-06-05T04:40:19;16.20;99.90
34406;DHT22;20658;45.630;8.886;2023-06-05T04:42:53;16.20;99.90
34406;DHT22;20658;45.630;8.886;2023-06-05T04:45:28;16.30;99.90
34406;DHT22;20658;45.630;8.886;2023-06-05T04:47:56;16.30;99.90
34406;DHT22;20658;45.630;8.886;2023-06-05T04:50:26;16.40;99.90
34406;DHT22;20658;45.630;8.886;2023-06-05T04:53:03;16.50;99.90
34406;DHT22;20658;45.630;8.886;2023-06-05T04:55:38;16.80;99.90
34406;DHT22;20658;45.630;8.886;2023-06-05T04:58:12;16.50;99.90
34406;DHT22;20658;45.630;8.886;2023-06-05T05:00:48;16.60;99.90
34406;DHT22;20658;45.630;8.886;2023-06-05T05:03:22;16.60;99.90
34406;DHT22;20658;45.630;8.886;2023-06-05T05:05:57;16.70;99.90
34406;DHT22;20658;45.630;8.886;2023-06-05T05:08:30;16.70;99.90
34406;DHT22;20658;45.630;8.886;2023-06-05T05:11:04;16.80;99.90
34406;DHT22;20658;45.630;8.886;2023-06-05T05:13:37;16.80;99.90
34406;DHT22;20658;45.630;8.886;2023-06-05T05:16:13;16.90;99.90
34406;DHT22;20658;45.630;8.886;2023-06-05T05:18:43;16.90;99.90
34406;DHT22;20658;45.630;8.886;2023-06-05T05:21:17;17.60;99.90
34406;DHT22;20658;45.630;8.886;2023-06-05T05:23:50;16.90;99.90
34406;DHT22;20658;45.630;8.886;2023-06-05T05:26:19;17.00;99.90
34406;DHT22;20658;45.630;8.886;2023-06-05T05:28:48;17.00;99.90
34406;DHT22;20658;45.630;8.886;2023-06-05T05:31:22;17.10;99.90
34406;DHT22;20658;45.630;8.886;2023-06-05T05:33:56;17.20;99.90
34406;DHT22;20658;45.630;8.886;2023-06-05T05:36:29;17.30;99.90
34406;DHT22;20658;45.630;8.886;2023-06-05T05:39:05;17.30;99.90
34406;DHT22;20658;45.630;8.886;2023-06-05T05:41:34;17.30;99.90
34406;DHT22;20658;45.630;8.886;2023-06-05T05:44:08;17.40;99.90
34406;DHT22;20658;45.630;8.886;2023-06-05T05:46:45;17.40;99.90
34406;DHT22;20658;45.630;8.886;2023-06-05T05:49:19;17.50;99.90
34406;DHT22;20658;45.630;8.886;2023-06-05T05:51:52;17.50;99.90
34406;DHT22;20658;45.630;8.886;2023-06-05T05:54:26;17.60;99.90
34406;DHT22;20658;45.630;8.886;2023-06-05T05:57:00;17.60;99.90
34406;DHT22;20658;45.630;8.886;2023-06-05T05:59:33;17.60;99.90
34406;DHT22;20658;45.630;8.886;2023-06-05T06:02:08;17.70;99.90
34406;DHT22;20658;45.630;8.886;2023-06-05T06:04:41;17.80;99.90
34406;DHT22;20658;45.630;8.886;2023-06-05T06:07:17;17.80;99.90
34406;DHT22;20658;45.630;8.886;2023-06-05T06:09:50;17.90;99.90
34406;DHT22;20658;45.630;8.886;2023-06-05T06:12:24;17.90;99.90
34406;DHT22;20658;45.630;8.886;2023-06-05T06:14:54;17.90;99.90
34406;DHT22;20658;45.630;8.886;2023-06-05T06:17:28;17.90;99.90
34406;DHT22;20658;45.630;8.886;2023-06-05T06:20:03;17.90;99.90
34406;DHT22;20658;45.630;8.886;2023-06-05T06:22:38;18.10;99.90
34406;DHT22;20658;45.630;8.886;2023-06-05T06:25:12;18.20;99.90
34406;DHT22;20658;45.630;8.886;2023-06-05T06:27:43;18.40;99.90
34406;DHT22;20658;45.630;8.886;2023-06-05T06:30:20;18.50;99.90
34406;DHT22;20658;45.630;8.886;2023-06-05T06:32:56;18.50;99.90
34406;DHT22;20658;45.630;8.886;2023-06-05T06:35:30;18.60;99.90
34406;DHT22;20658;45.630;8.886;2023-06-05T06:38:04;18.80;99.90
34406;DHT22;20658;45.630;8.886;2023-06-05T06:40:38;18.90;99.90
34406;DHT22;20658;45.630;8.886;2023-06-05T06:43:11;18.90;99.90
34406;DHT22;20658;45.630;8.886;2023-06-05T06:45:44;18.90;99.90
34406;DHT22;20658;45.630;8.886;2023-06-05T06:48:19;19.10;99.90
34406;DHT22;20658;45.630;8.886;2023-06-05T06:50:52;19.30;99.90
34406;DHT22;20658;45.630;8.886;2023-06-05T06:53:26;19.70;99.80
34406;DHT22;20658;45.630;8.886;2023-06-05T06:56:00;20.30;98.70
34406;DHT22;20658;45.630;8.886;2023-06-05T06:58:33;20.60;96.80
34406;DHT22;20658;45.630;8.886;2023-06-05T07:01:06;20.60;95.10
34406;DHT22;20658;45.630;8.886;2023-06-05T07:03:37;20.40;95.10
34406;DHT22;20658;45.630;8.886;2023-06-05T07:06:12;20.30;95.50
34406;DHT22;20658;45.630;8.886;2023-06-05T07:08:46;20.20;96.30
34406;DHT22;20658;45.630;8.886;2023-06-05T07:11:15;20.40;97.00
34406;DHT22;20658;45.630;8.886;2023-06-05T07:13:48;20.80;96.30
34406;DHT22;20658;45.630;8.886;2023-06-05T07:16:21;21.00;94.50
34406;DHT22;20658;45.630;8.886;2023-06-05T07:18:56;21.10;93.60
34406;DHT22;20658;45.630;8.886;2023-06-05T07:21:24;21.20;92.00
34406;DHT22;20658;45.630;8.886;2023-06-05T07:23:58;21.30;91.10
34406;DHT22;20658;45.630;8.886;2023-06-05T07:26:33;21.30;90.50
34406;DHT22;20658;45.630;8.886;2023-06-05T07:29:07;21.30;90.40
34406;DHT22;20658;45.630;8.886;2023-06-05T07:31:42;21.30;90.40
34406;DHT22;20658;45.630;8.886;2023-06-05T07:34:17;21.20;89.80
34406;DHT22;20658;45.630;8.886;2023-06-05T07:36:51;21.10;89.50
34406;DHT22;20658;45.630;8.886;2023-06-05T07:39:25;21.20;91.00
34406;DHT22;20658;45.630;8.886;2023-06-05T07:41:59;21.40;89.50
34406;DHT22;20658;45.630;8.886;2023-06-05T07:44:33;21.30;89.20
34406;DHT22;20658;45.630;8.886;2023-06-05T07:47:01;21.50;89.80
34406;DHT22;20658;45.630;8.886;2023-06-05T07:49:36;21.60;88.60
34406;DHT22;20658;45.630;8.886;2023-06-05T07:52:09;21.80;87.30
34406;DHT22;20658;45.630;8.886;2023-06-05T07:54:42;21.90;85.70
34406;DHT22;20658;45.630;8.886;2023-06-05T07:57:16;22.00;84.50
34406;DHT22;20658;45.630;8.886;2023-06-05T07:59:49;22.00;84.70
34406;DHT22;20658;45.630;8.886;2023-06-05T08:02:24;21.90;84.30
34406;DHT22;20658;45.630;8.886;2023-06-05T08:04:59;22.00;85.30
34406;DHT22;20658;45.630;8.886;2023-06-05T08:07:27;22.00;85.40
34406;DHT22;20658;45.630;8.886;2023-06-05T08:09:55;22.00;86.00
34406;DHT22;20658;45.630;8.886;2023-06-05T08:12:29;22.50;85.10
34406;DHT22;20658;45.630;8.886;2023-06-05T08:15:03;22.30;82.30
34406;DHT22;20658;45.630;8.886;2023-06-05T08:17:37;22.10;85.10
34406;DHT22;20658;45.630;8.886;2023-06-05T08:20:12;22.10;84.70
34406;DHT22;20658;45.630;8.886;2023-06-05T08:22:45;22.30;84.00
34406;DHT22;20658;45.630;8.886;2023-06-05T08:25:19;22.40;84.40
34406;DHT22;20658;45.630;8.886;2023-06-05T08:27:52;22.40;84.60
34406;DHT22;20658;45.630;8.886;2023-06-05T08:30:26;22.10;84.60
34406;DHT22;20658;45.630;8.886;2023-06-05T08:32:59;22.00;84.70
34406;DHT22;20658;45.630;8.886;2023-06-05T08:35:35;22.10;85.30
34406;DHT22;20658;45.630;8.886;2023-06-05T08:38:09;22.10;84.90
34406;DHT22;20658;45.630;8.886;2023-06-05T08:40:43;22.00;86.10
34406;DHT22;20658;45.630;8.886;2023-06-05T08:43:20;22.10;85.90
34406;DHT22;20658;45.630;8.886;2023-06-05T08:45:55;22.00;83.70
34406;DHT22;20658;45.630;8.886;2023-06-05T08:48:32;21.80;85.50
34406;DHT22;20658;45.630;8.886;2023-06-05T08:51:10;22.00;85.20
34406;DHT22;20658;45.630;8.886;2023-06-05T08:53:50;21.90;84.70
34406;DHT22;20658;45.630;8.886;2023-06-05T08:56:25;22.00;83.10
34406;DHT22;20658;45.630;8.886;2023-06-05T08:58:59;22.00;82.70
34406;DHT22;20658;45.630;8.886;2023-06-05T09:01:29;22.30;83.20
34406;DHT22;20658;45.630;8.886;2023-06-05T09:04:04;22.60;81.80
34406;DHT22;20658;45.630;8.886;2023-06-05T09:06:39;22.90;79.30
34406;DHT22;20658;45.630;8.886;2023-06-05T09:09:14;23.10;77.00
34406;DHT22;20658;45.630;8.886;2023-06-05T09:11:43;23.10;76.80
34406;DHT22;20658;45.630;8.886;2023-06-05T09:14:25;23.40;74.70
34406;DHT22;20658;45.630;8.886;2023-06-05T09:16:59;23.50;74.30
34406;DHT22;20658;45.630;8.886;2023-06-05T09:19:36;23.80;74.80
34406;DHT22;20658;45.630;8.886;2023-06-05T09:22:11;23.90;72.00
34406;DHT22;20658;45.630;8.886;2023-06-05T09:24:56;24.10;71.90
34406;DHT22;20658;45.630;8.886;2023-06-05T09:27:30;24.40;70.60
34406;DHT22;20658;45.630;8.886;2023-06-05T09:30:03;24.40;69.30
34406;DHT22;20658;45.630;8.886;2023-06-05T09:32:37;24.60;68.90
34406;DHT22;20658;45.630;8.886;2023-06-05T09:35:16;24.90;68.30
34406;DHT22;20658;45.630;8.886;2023-06-05T09:37:51;24.90;65.70
34406;DHT22;20658;45.630;8.886;2023-06-05T09:40:36;25.30;65.00
34406;DHT22;20658;45.630;8.886;2023-06-05T09:43:14;25.70;64.90
34406;DHT22;20658;45.630;8.886;2023-06-05T09:45:49;25.80;62.80
34406;DHT22;20658;45.630;8.886;2023-06-05T09:48:23;25.00;64.10
34406;DHT22;20658;45.630;8.886;2023-06-05T09:51:08;25.10;64.50
34406;DHT22;20658;45.630;8.886;2023-06-05T09:53:46;24.70;63.30
34406;DHT22;20658;45.630;8.886;2023-06-05T09:56:21;24.80;64.20
34406;DHT22;20658;45.630;8.886;2023-06-05T09:58:55;25.10;64.00
34406;DHT22;20658;45.630;8.886;2023-06-05T10:01:29;25.30;64.00
34406;DHT22;20658;45.630;8.886;2023-06-05T10:04:05;25.80;62.10
34406;DHT22;20658;45.630;8.886;2023-06-05T10:06:40;26.20;59.70
34406;DHT22;20658;45.630;8.886;2023-06-05T10:09:11;26.40;57.50
34406;DHT22;20658;45.630;8.886;2023-06-05T10:11:49;26.80;58.00
34406;DHT22;20658;45.630;8.886;2023-06-05T10:14:23;27.10;58.30
34406;DHT22;20658;45.630;8.886;2023-06-05T10:16:57;27.20;57.10
34406;DHT22;20658;45.630;8.886;2023-06-05T10:19:32;26.80;56.70
34406;DHT22;20658;45.630;8.886;2023-06-05T10:22:06;26.50;58.60
34406;DHT22;20658;45.630;8.886;2023-06-05T10:24:43;26.40;59.30
34406;DHT22;20658;45.630;8.886;2023-06-05T10:27:54;26.30;58.20
34406;DHT22;20658;45.630;8.886;2023-06-05T10:34:20;26.20;58.40
34406;DHT22;20658;45.630;8.886;2023-06-05T10:40:15;26.00;59.60
34406;DHT22;20658;45.630;8.886;2023-06-05T10:42:49;26.30;58.30
34406;DHT22;20658;45.630;8.886;2023-06-05T10:45:30;26.80;56.80
34406;DHT22;20658;45.630;8.886;2023-06-05T10:47:59;27.20;56.10
34406;DHT22;20658;45.630;8.886;2023-06-05T10:50:32;27.60;55.70
34406;DHT22;20658;45.630;8.886;2023-06-05T10:53:05;27.30;54.90
34406;DHT22;20658;45.630;8.886;2023-06-05T10:55:42;27.40;54.80
34406;DHT22;20658;45.630;8.886;2023-06-05T10:58:16;27.90;54.00
34406;DHT22;20658;45.630;8.886;2023-06-05T11:01:20;28.20;52.60
34406;DHT22;20658;45.630;8.886;2023-06-05T11:03:58;28.10;51.60
34406;DHT22;20658;45.630;8.886;2023-06-05T11:06:31;27.90;52.50
34406;DHT22;20658;45.630;8.886;2023-06-05T11:09:10;28.00;52.30
34406;DHT22;20658;45.630;8.886;2023-06-05T11:11:57;27.80;52.70
34406;DHT22;20658;45.630;8.886;2023-06-05T11:14:44;28.00;52.10
34406;DHT22;20658;45.630;8.886;2023-06-05T11:17:29;27.50;52.10
34406;DHT22;20658;45.630;8.886;2023-06-05T11:20:04;27.20;52.70
34406;DHT22;20658;45.630;8.886;2023-06-05T11:23:06;26.50;53.70
34406;DHT22;20658;45.630;8.886;2023-06-05T11:25:40;26.50;54.10
34406;DHT22;20658;45.630;8.886;2023-06-05T11:28:39;27.00;54.00
34406;DHT22;20658;45.630;8.886;2023-06-05T11:31:09;26.80;51.70
34406;DHT22;20658;45.630;8.886;2023-06-05T11:33:42;26.90;52.70
34406;DHT22;20658;45.630;8.886;2023-06-05T11:36:15;27.20;52.70
34406;DHT22;20658;45.630;8.886;2023-06-05T11:38:56;27.30;51.70
34406;DHT22;20658;45.630;8.886;2023-06-05T11:41:30;27.60;51.80
34406;DHT22;20658;45.630;8.886;2023-06-05T11:44:04;28.00;51.40
34406;DHT22;20658;45.630;8.886;2023-06-05T11:46:39;28.10;50.60
34406;DHT22;20658;45.630;8.886;2023-06-05T11:49:26;28.20;50.50
34406;DHT22;20658;45.630;8.886;2023-06-05T11:52:00;27.90;48.40
34406;DHT22;20658;45.630;8.886;2023-06-05T11:54:34;27.30;50.80
34406;DHT22;20658;45.630;8.886;2023-06-05T11:57:17;27.30;51.20
34406;DHT22;20658;45.630;8.886;2023-06-05T11:59:52;27.90;50.00
34406;DHT22;20658;45.630;8.886;2023-06-05T12:02:25;27.70;49.80
34406;DHT22;20658;45.630;8.886;2023-06-05T12:04:59;27.40;50.00
34406;DHT22;20658;45.630;8.886;2023-06-05T12:07:33;27.00;52.00
34406;DHT22;20658;45.630;8.886;2023-06-05T12:10:09;27.00;53.20
34406;DHT22;20658;45.630;8.886;2023-06-05T12:12:50;27.00;52.90
34406;DHT22;20658;45.630;8.886;2023-06-05T12:15:20;26.90;52.70
34406;DHT22;20658;45.630;8.886;2023-06-05T12:17:56;26.60;54.40
34406;DHT22;20658;45.630;8.886;2023-06-05T12:20:37;26.40;54.50
34406;DHT22;20658;45.630;8.886;2023-06-05T12:23:18;26.40;55.70
34406;DHT22;20658;45.630;8.886;2023-06-05T12:26:01;25.80;55.90
34406;DHT22;20658;45.630;8.886;2023-06-05T12:28:35;25.60;57.20
34406;DHT22;20658;45.630;8.886;2023-06-05T12:31:10;25.30;57.90
34406;DHT22;20658;45.630;8.886;2023-06-05T12:33:47;25.10;58.80
34406;DHT22;20658;45.630;8.886;2023-06-05T12:36:21;25.00;58.40
34406;DHT22;20658;45.630;8.886;2023-06-05T12:38:54;25.00;58.70
34406;DHT22;20658;45.630;8.886;2023-06-05T12:41:28;24.80;59.20
34406;DHT22;20658;45.630;8.886;2023-06-05T12:44:02;25.20;59.30
34406;DHT22;20658;45.630;8.886;2023-06-05T12:46:38;25.30;59.50
34406;DHT22;20658;45.630;8.886;2023-06-05T12:49:12;25.10;58.50
34406;DHT22;20658;45.630;8.886;2023-06-05T12:51:45;25.00;59.40
34406;DHT22;20658;45.630;8.886;2023-06-05T12:54:19;25.50;58.30
34406;DHT22;20658;45.630;8.886;2023-06-05T12:56:52;26.10;55.70
34406;DHT22;20658;45.630;8.886;2023-06-05T12:59:27;26.00;54.90
34406;DHT22;20658;45.630;8.886;2023-06-05T13:02:02;25.90;55.00
34406;DHT22;20658;45.630;8.886;2023-06-05T13:04:30;26.00;55.30
34406;DHT22;20658;45.630;8.886;2023-06-05T13:07:04;25.60;55.30
34406;DHT22;20658;45.630;8.886;2023-06-05T13:09:38;25.50;55.10
34406;DHT22;20658;45.630;8.886;2023-06-05T13:12:12;25.80;55.20
34406;DHT22;20658;45.630;8.886;2023-06-05T13:14:45;25.80;56.40
34406;DHT22;20658;45.630;8.886;2023-06-05T13:17:20;25.70;56.70
34406;DHT22;20658;45.630;8.886;2023-06-05T13:19:54;25.50;55.20
34406;DHT22;20658;45.630;8.886;2023-06-05T13:22:23;25.50;56.10
34406;DHT22;20658;45.630;8.886;2023-06-05T13:24:57;25.60;55.90
34406;DHT22;20658;45.630;8.886;2023-06-05T13:27:30;25.90;54.90
34406;DHT22;20658;45.630;8.886;2023-06-05T13:30:04;25.60;55.20
34406;DHT22;20658;45.630;8.886;2023-06-05T13:32:40;25.30;57.10
34406;DHT22;20658;45.630;8.886;2023-06-05T13:35:16;25.10;57.30
34406;DHT22;20658;45.630;8.886;2023-06-05T13:37:49;26.00;56.60
34406;DHT22;20658;45.630;8.886;2023-06-05T13:40:23;26.20;54.60
34406;DHT22;20658;45.630;8.886;2023-06-05T13:42:53;26.00;54.10
34406;DHT22;20658;45.630;8.886;2023-06-05T13:45:27;25.70;54.90
34406;DHT22;20658;45.630;8.886;2023-06-05T13:48:01;25.60;55.40
34406;DHT22;20658;45.630;8.886;2023-06-05T13:50:35;25.50;55.40
34406;DHT22;20658;45.630;8.886;2023-06-05T13:53:08;25.20;56.90
34406;DHT22;20658;45.630;8.886;2023-06-05T13:55:37;25.10;56.90
34406;DHT22;20658;45.630;8.886;2023-06-05T13:58:11;25.20;57.20
34406;DHT22;20658;45.630;8.886;2023-06-05T14:00:44;25.10;57.10
34406;DHT22;20658;45.630;8.886;2023-06-05T14:03:19;25.60;56.20
34406;DHT22;20658;45.630;8.886;2023-06-05T14:05:53;26.00;55.50
34406;DHT22;20658;45.630;8.886;2023-06-05T14:08:26;25.70;55.70
34406;DHT22;20658;45.630;8.886;2023-06-05T14:11:00;25.50;56.20
34406;DHT22;20658;45.630;8.886;2023-06-05T14:13:34;25.30;57.60
34406;DHT22;20658;45.630;8.886;2023-06-05T14:16:08;25.10;58.80
34406;DHT22;20658;45.630;8.886;2023-06-05T14:18:44;25.10;58.80
34406;DHT22;20658;45.630;8.886;2023-06-05T14:21:18;25.40;58.90
34406;DHT22;20658;45.630;8.886;2023-06-05T14:23:51;24.70;58.90
34406;DHT22;20658;45.630;8.886;2023-06-05T14:26:24;24.50;59.80
34406;DHT22;20658;45.630;8.886;2023-06-05T14:28:59;24.40;59.80
34406;DHT22;20658;45.630;8.886;2023-06-05T14:31:32;24.60;60.00
34406;DHT22;20658;45.630;8.886;2023-06-05T14:34:07;24.40;58.80
34406;DHT22;20658;45.630;8.886;2023-06-05T14:36:41;24.60;60.20
34406;DHT22;20658;45.630;8.886;2023-06-05T14:39:22;25.00;59.10
34406;DHT22;20658;45.630;8.886;2023-06-05T14:41:55;25.10;58.00
34406;DHT22;20658;45.630;8.886;2023-06-05T14:44:28;25.10;58.00
34406;DHT22;20658;45.630;8.886;2023-06-05T14:47:03;25.60;55.40
34406;DHT22;20658;45.630;8.886;2023-06-05T14:49:38;25.10;55.90
34406;DHT22;20658;45.630;8.886;2023-06-05T14:52:11;24.70;57.20
34406;DHT22;20658;45.630;8.886;2023-06-05T14:54:45;25.00;57.90
34406;DHT22;20658;45.630;8.886;2023-06-05T14:57:18;25.80;55.80
34406;DHT22;20658;45.630;8.886;2023-06-05T14:59:51;25.30;55.70
34406;DHT22;20658;45.630;8.886;2023-06-05T15:02:25;25.00;56.60
34406;DHT22;20658;45.630;8.886;2023-06-05T15:04:59;25.00;56.80
34406;DHT22;20658;45.630;8.886;2023-06-05T15:07:37;24.90;56.70
34406;DHT22;20658;45.630;8.886;2023-06-05T15:10:10;25.10;56.40
34406;DHT22;20658;45.630;8.886;2023-06-05T15:12:46;25.10;55.70
34406;DHT22;20658;45.630;8.886;2023-06-05T15:15:19;25.10;55.50
34406;DHT22;20658;45.630;8.886;2023-06-05T15:17:52;24.90;56.30
34406;DHT22;20658;45.630;8.886;2023-06-05T15:20:28;24.80;55.80
34406;DHT22;20658;45.630;8.886;2023-06-05T15:23:01;25.10;54.70
34406;DHT22;20658;45.630;8.886;2023-06-05T15:25:35;25.00;54.10
34406;DHT22;20658;45.630;8.886;2023-06-05T15:28:08;24.90;54.90
34406;DHT22;20658;45.630;8.886;2023-06-05T15:30:42;24.90;55.20
34406;DHT22;20658;45.630;8.886;2023-06-05T15:33:15;25.00;55.50
34406;DHT22;20658;45.630;8.886;2023-06-05T15:35:50;25.50;53.90
34406;DHT22;20658;45.630;8.886;2023-06-05T15:38:23;25.80;50.90
34406;DHT22;20658;45.630;8.886;2023-06-05T15:40:56;26.10;51.50
34406;DHT22;20658;45.630;8.886;2023-06-05T15:43:30;26.10;52.40
34406;DHT22;20658;45.630;8.886;2023-06-05T15:46:03;25.90;52.20
34406;DHT22;20658;45.630;8.886;2023-06-05T15:48:37;25.90;52.90
34406;DHT22;20658;45.630;8.886;2023-06-05T15:51:12;25.50;52.10
34406;DHT22;20658;45.630;8.886;2023-06-05T15:53:45;24.80;53.80
34406;DHT22;20658;45.630;8.886;2023-06-05T15:56:18;24.80;54.50
34406;DHT22;20658;45.630;8.886;2023-06-05T15:58:52;25.30;53.90
34406;DHT22;20658;45.630;8.886;2023-06-05T16:01:26;25.60;52.00
34406;DHT22;20658;45.630;8.886;2023-06-05T16:03:59;26.10;51.90
34406;DHT22;20658;45.630;8.886;2023-06-05T16:06:35;26.20;49.80
34406;DHT22;20658;45.630;8.886;2023-06-05T16:09:08;26.10;50.40
34406;DHT22;20658;45.630;8.886;2023-06-05T16:11:42;26.10;50.70
34406;DHT22;20658;45.630;8.886;2023-06-05T16:14:16;26.30;49.70
34406;DHT22;20658;45.630;8.886;2023-06-05T16:16:49;26.40;49.90
34406;DHT22;20658;45.630;8.886;2023-06-05T16:19:23;26.30;50.70
34406;DHT22;20658;45.630;8.886;2023-06-05T16:21:58;26.30;51.10